createdAt,value
2019-06-26T00:02:24.596Z,76.00
2019-06-26T00:04:56.400Z,76.10
2019-06-26T00:07:28.298Z,76.50
2019-06-26T00:10:00.050Z,76.60
2019-06-26T00:12:31.904Z,76.70
2019-06-26T00:15:03.728Z,76.90
2019-06-26T00:17:35.145Z,77.30
2019-06-26T00:20:07.686Z,77.50
2019-06-26T00:22:39.754Z,77.60
2019-06-26T00:25:11.717Z,77.90
2019-06-26T00:27:43.507Z,78.10
2019-06-26T00:30:16.394Z,78.20
2019-06-26T00:32:48.168Z,78.50
2019-06-26T00:35:20.023Z,78.70
2019-06-26T00:37:51.781Z,78.80
2019-06-26T00:40:23.424Z,79.10
2019-06-26T00:42:55.212Z,79.30
2019-06-26T00:45:26.920Z,80.30
2019-06-26T00:47:58.730Z,79.60
2019-06-26T00:50:30.570Z,79.80
2019-06-26T00:53:02.459Z,79.80
2019-06-26T00:55:34.314Z,80.00
2019-06-26T00:58:06.165Z,80.30
2019-06-26T01:00:42.586Z,80.40
2019-06-26T01:03:14.504Z,81.00
2019-06-26T01:05:46.360Z,81.30
2019-06-26T01:08:18.163Z,82.50
2019-06-26T01:10:49.994Z,81.90
2019-06-26T01:13:21.648Z,82.20
2019-06-26T01:15:53.440Z,82.40
2019-06-26T01:18:25.399Z,82.60
2019-06-26T01:20:57.279Z,82.70
2019-06-26T01:23:29.485Z,82.80
2019-06-26T01:26:01.622Z,83.00
2019-06-26T01:28:33.312Z,83.30
2019-06-26T01:31:05.108Z,83.60
2019-06-26T01:33:37.159Z,83.80
2019-06-26T01:36:08.923Z,84.00
2019-06-26T01:38:40.397Z,84.10
2019-06-26T01:41:12.434Z,84.20
2019-06-26T01:43:44.356Z,84.20
2019-06-26T01:46:16.121Z,84.50
2019-06-26T01:48:47.963Z,84.50
2019-06-26T01:51:19.873Z,84.50
2019-06-26T01:53:51.668Z,84.50
2019-06-26T01:56:23.455Z,84.50
2019-06-26T01:58:55.170Z,84.50
2019-06-26T02:01:26.556Z,84.50
2019-06-26T02:03:58.106Z,84.60
2019-06-26T02:06:29.961Z,84.60
2019-06-26T02:09:01.693Z,84.80
2019-06-26T02:11:33.238Z,84.90
2019-06-26T02:14:05.413Z,85.00
2019-06-26T02:16:37.344Z,85.10
2019-06-26T02:19:10.674Z,85.20
2019-06-26T02:21:42.455Z,85.30
2019-06-26T02:24:14.626Z,85.40
2019-06-26T02:26:46.443Z,85.60
2019-06-26T02:29:18.235Z,85.60
2019-06-26T02:31:49.948Z,85.70
2019-06-26T02:34:21.868Z,85.70
2019-06-26T02:36:53.993Z,85.70
2019-06-26T02:39:25.752Z,85.70
2019-06-26T02:41:57.245Z,85.80
2019-06-26T02:44:29.173Z,85.60
2019-06-26T02:47:18.205Z,85.70
2019-06-26T02:49:34.477Z,85.60
2019-06-26T02:52:06.249Z,85.70
2019-06-26T02:54:38.165Z,85.60
2019-06-26T02:57:09.951Z,85.50
2019-06-26T02:59:41.857Z,85.40
2019-06-26T03:02:13.629Z,85.40
2019-06-26T03:04:45.402Z,85.30
2019-06-26T03:07:17.170Z,85.20
2019-06-26T03:09:48.965Z,85.30
2019-06-26T03:12:21.416Z,85.10
2019-06-26T03:15:07.697Z,85.00
2019-06-26T03:17:26.786Z,85.00
2019-06-26T03:19:58.492Z,84.90
2019-06-26T03:22:30.406Z,85.00
2019-06-26T03:25:02.340Z,84.80
2019-06-26T03:27:34.465Z,84.60
2019-06-26T03:30:06.320Z,84.40
2019-06-26T03:32:38.230Z,83.60
2019-06-26T03:35:10.583Z,83.30
2019-06-26T03:37:43.025Z,83.00
2019-06-26T03:40:14.872Z,82.60
2019-06-26T03:42:46.904Z,82.30
2019-06-26T03:45:25.737Z,82.10
2019-06-26T03:47:52.522Z,82.00
2019-06-26T03:50:25.332Z,81.70
2019-06-26T03:52:57.440Z,81.40
2019-06-26T03:55:29.537Z,81.20
2019-06-26T03:58:01.554Z,81.10
2019-06-26T04:00:40.731Z,80.80
2019-06-26T04:03:12.700Z,80.50
2019-06-26T04:05:44.789Z,80.50
2019-06-26T04:08:16.734Z,80.20
2019-06-26T04:10:48.532Z,80.00
2019-06-26T04:13:20.636Z,79.90
2019-06-26T04:15:52.429Z,79.80
2019-06-26T04:18:24.289Z,79.90
2019-06-26T04:20:56.341Z,79.70
2019-06-26T04:23:28.203Z,79.70
2019-06-26T04:26:00.466Z,79.50
2019-06-26T04:28:32.579Z,79.40
2019-06-26T04:31:04.296Z,79.30
2019-06-26T04:33:35.941Z,78.60
2019-06-26T04:36:08.050Z,78.70
2019-06-26T04:38:40.107Z,77.70
2019-06-26T04:41:12.084Z,77.00
2019-06-26T04:43:44.056Z,76.50
2019-06-26T04:46:16.290Z,76.10
2019-06-26T04:48:48.180Z,76.00
2019-06-26T04:51:20.026Z,75.80
2019-06-26T04:53:55.651Z,75.60
2019-06-26T04:56:25.867Z,75.40
2019-06-26T04:58:57.839Z,75.20
2019-06-26T05:01:29.750Z,75.10
2019-06-26T05:04:01.637Z,75.00
2019-06-26T05:06:33.497Z,74.80
2019-06-26T05:09:06.407Z,74.70
2019-06-26T05:11:38.058Z,74.60
2019-06-26T05:14:10.136Z,74.30
2019-06-26T05:16:41.950Z,74.10
2019-06-26T05:19:13.901Z,73.70
2019-06-26T05:21:46.045Z,72.90
2019-06-26T05:24:18.347Z,73.30
2019-06-26T05:26:50.712Z,72.00
2019-06-26T05:29:23.420Z,71.30
2019-06-26T05:31:55.311Z,70.60
2019-06-26T05:34:27.644Z,70.10
2019-06-26T05:36:59.726Z,68.20
2019-06-26T05:39:31.729Z,65.00
2019-06-26T05:42:06.664Z,61.00
2019-06-26T05:44:38.182Z,58.40
2019-06-26T05:47:10.279Z,56.10
2019-06-26T05:49:42.430Z,54.20
2019-06-26T05:52:16.688Z,52.80
2019-06-26T05:54:48.781Z,51.60
2019-06-26T05:57:20.945Z,50.70
2019-06-26T05:59:53.117Z,50.40
2019-06-26T06:02:25.258Z,49.70
2019-06-26T06:04:57.753Z,49.30
2019-06-26T06:07:30.194Z,49.00
2019-06-26T06:10:02.240Z,48.60
2019-06-26T06:12:34.568Z,48.20
2019-06-26T06:15:07.525Z,47.80
2019-06-26T06:17:39.713Z,47.60
2019-06-26T06:20:13.959Z,47.70
2019-06-26T06:22:46.938Z,47.40
2019-06-26T06:25:18.993Z,46.70
2019-06-26T06:27:51.106Z,46.10
2019-06-26T06:30:24.452Z,45.00
2019-06-26T06:32:57.042Z,44.00
2019-06-26T06:35:29.260Z,43.00
2019-06-26T06:38:01.392Z,42.20
2019-06-26T06:40:34.124Z,42.10
2019-06-26T06:43:06.377Z,42.30
2019-06-26T06:45:38.663Z,42.00
2019-06-26T06:48:10.861Z,41.20
2019-06-26T06:50:43.574Z,40.00
2019-06-26T06:53:16.023Z,39.00
2019-06-26T06:55:48.925Z,38.00
2019-06-26T06:58:21.191Z,37.80
2019-06-26T07:00:53.179Z,38.00
2019-06-26T07:03:26.094Z,38.20
2019-06-26T07:05:58.193Z,37.70
2019-06-26T07:08:30.577Z,37.10
2019-06-26T07:11:03.061Z,36.50
2019-06-26T07:13:34.905Z,36.30
2019-06-26T07:16:07.118Z,36.10
2019-06-26T07:18:39.601Z,35.70
2019-06-26T07:21:11.565Z,35.30
2019-06-26T07:23:43.833Z,35.10
2019-06-26T07:26:16.276Z,35.20
2019-06-26T07:28:49.119Z,34.80
2019-06-26T07:31:21.143Z,34.30
2019-06-26T07:33:55.646Z,34.40
2019-06-26T07:36:27.633Z,34.40
2019-06-26T07:38:59.741Z,33.90
2019-06-26T07:41:32.428Z,33.60
2019-06-26T07:44:04.927Z,33.30
2019-06-26T07:46:37.019Z,32.90
2019-06-26T07:49:08.913Z,32.50
2019-06-26T07:51:41.314Z,32.40
2019-06-26T07:54:13.311Z,32.60
2019-06-26T07:56:45.545Z,32.60
2019-06-26T07:59:17.592Z,33.50
2019-06-26T08:01:50.284Z,32.80
2019-06-26T08:04:22.553Z,33.00
2019-06-26T08:06:54.423Z,33.10
2019-06-26T08:09:26.600Z,32.90
2019-06-26T08:11:58.912Z,32.80
2019-06-26T08:14:31.529Z,32.70
2019-06-26T08:17:03.823Z,32.70
2019-06-26T08:19:35.865Z,32.50
2019-06-26T08:22:08.002Z,32.30
2019-06-26T08:24:40.127Z,32.20
2019-06-26T08:27:13.268Z,32.00
2019-06-26T08:29:45.796Z,31.50
2019-06-26T08:32:44.612Z,31.40
2019-06-26T08:35:17.346Z,31.30
2019-06-26T08:37:50.233Z,31.60
2019-06-26T08:40:23.480Z,31.70
2019-06-26T08:42:56.903Z,31.70
2019-06-26T08:45:29.028Z,31.50
2019-06-26T08:48:16.872Z,31.60
2019-06-26T08:50:35.538Z,32.10
2019-06-26T08:53:07.597Z,32.30
2019-06-26T08:55:39.803Z,32.10
2019-06-26T08:58:11.782Z,31.50
2019-06-26T09:00:44.401Z,33.10
2019-06-26T09:03:16.311Z,33.90
2019-06-26T09:05:48.932Z,34.50
2019-06-26T09:08:21.498Z,34.90
2019-06-26T09:10:53.732Z,33.80
2019-06-26T09:13:25.858Z,33.10
2019-06-26T09:15:58.308Z,33.10
2019-06-26T09:18:35.358Z,33.30
2019-06-26T09:21:04.766Z,33.50
2019-06-26T09:23:36.879Z,33.00
2019-06-26T09:26:09.386Z,32.10
2019-06-26T09:28:41.370Z,31.90
2019-06-26T09:31:13.596Z,32.70
2019-06-26T09:33:45.952Z,32.90
2019-06-26T09:36:18.299Z,32.60
2019-06-26T09:38:50.297Z,32.60
2019-06-26T09:41:21.920Z,32.90
2019-06-26T09:43:54.788Z,33.40
2019-06-26T09:46:27.821Z,33.30
2019-06-26T09:49:00.141Z,33.80
2019-06-26T09:51:32.266Z,33.00
2019-06-26T09:54:04.347Z,33.20
2019-06-26T09:56:36.740Z,33.80
2019-06-26T09:59:09.354Z,34.80
2019-06-26T10:01:41.958Z,35.60
2019-06-26T10:04:14.233Z,36.90
2019-06-26T10:06:47.314Z,36.90
2019-06-26T10:09:19.538Z,37.20
2019-06-26T10:11:51.830Z,37.40
2019-06-26T10:14:24.194Z,37.70
2019-06-26T10:16:56.407Z,37.90
2019-06-26T10:19:28.368Z,37.90
2019-06-26T10:22:00.743Z,37.40
2019-06-26T10:24:33.002Z,36.80
2019-06-26T10:27:05.474Z,36.30
2019-06-26T10:29:38.017Z,36.00
2019-06-26T10:32:09.931Z,35.90
2019-06-26T10:34:42.271Z,35.70
2019-06-26T10:37:14.475Z,35.40
2019-06-26T10:39:46.483Z,35.70
2019-06-26T10:42:18.882Z,36.20
2019-06-26T10:44:51.848Z,36.50
2019-06-26T10:47:24.335Z,36.60
2019-06-26T10:49:56.660Z,36.50
2019-06-26T10:52:28.959Z,37.10
2019-06-26T10:55:01.138Z,37.70
2019-06-26T10:57:34.037Z,37.70
2019-06-26T11:00:07.285Z,37.40
2019-06-26T11:02:39.941Z,36.90
2019-06-26T11:05:12.607Z,36.80
2019-06-26T11:07:44.659Z,37.30
2019-06-26T11:10:17.108Z,37.70
2019-06-26T11:12:49.217Z,37.80
2019-06-26T11:15:22.275Z,37.80
2019-06-26T11:17:54.783Z,37.70
2019-06-26T11:20:27.132Z,37.80
2019-06-26T11:22:59.408Z,38.00
2019-06-26T11:25:32.218Z,38.20
2019-06-26T11:28:04.515Z,38.20
2019-06-26T11:30:37.560Z,38.00
2019-06-26T11:33:09.711Z,37.90
2019-06-26T11:35:44.234Z,38.30
2019-06-26T11:38:15.764Z,38.40
2019-06-26T11:40:47.954Z,38.60
2019-06-26T11:43:20.223Z,38.60
2019-06-26T11:45:52.854Z,38.60
2019-06-26T11:48:25.323Z,38.20
2019-06-26T11:50:57.772Z,38.00
2019-06-26T11:53:29.685Z,38.00
2019-06-26T11:56:02.286Z,38.20
2019-06-26T11:58:34.446Z,38.00
2019-06-26T12:01:06.395Z,37.90
2019-06-26T12:03:38.672Z,37.80
2019-06-26T12:06:18.591Z,37.80
2019-06-26T12:08:45.127Z,37.90
2019-06-26T12:11:17.184Z,38.30
2019-06-26T12:13:49.504Z,37.60
2019-06-26T12:16:21.682Z,37.40
2019-06-26T12:18:53.864Z,37.20
2019-06-26T12:21:26.221Z,37.10
2019-06-26T12:23:58.788Z,36.90
2019-06-26T12:26:31.714Z,36.50
2019-06-26T12:29:04.239Z,36.70
2019-06-26T12:31:36.593Z,36.70
2019-06-26T12:34:08.933Z,36.90
2019-06-26T12:36:40.962Z,36.80
2019-06-26T12:39:13.282Z,36.70
2019-06-26T12:41:45.318Z,36.80
2019-06-26T12:44:17.080Z,37.10
2019-06-26T12:46:49.440Z,37.40
2019-06-26T12:49:21.696Z,37.60
2019-06-26T12:51:53.959Z,37.70
2019-06-26T12:54:25.843Z,37.60
2019-06-26T12:56:58.085Z,37.40
2019-06-26T12:59:30.442Z,37.20
2019-06-26T13:02:02.935Z,37.30
2019-06-26T13:04:35.429Z,37.50
2019-06-26T13:07:07.662Z,37.20
2019-06-26T13:09:39.732Z,37.30
2019-06-26T13:12:11.944Z,37.50
2019-06-26T13:14:44.406Z,36.90
2019-06-26T13:17:16.463Z,36.70
2019-06-26T13:19:48.537Z,36.70
2019-06-26T13:22:20.805Z,36.50
2019-06-26T13:24:52.715Z,36.50
2019-06-26T13:27:24.984Z,36.60
2019-06-26T13:29:57.218Z,36.30
2019-06-26T13:32:37.751Z,35.30
2019-06-26T13:35:10.011Z,34.50
2019-06-26T13:37:43.000Z,33.60
2019-06-26T13:40:15.273Z,32.90
2019-06-26T13:42:47.441Z,32.80
2019-06-26T13:45:20.500Z,32.60
2019-06-26T13:47:52.665Z,32.50
2019-06-26T13:50:24.959Z,32.50
2019-06-26T13:52:56.992Z,33.20
2019-06-26T13:55:29.544Z,32.50
2019-06-26T13:58:01.618Z,32.60
2019-06-26T14:00:33.903Z,32.90
2019-06-26T14:03:06.091Z,33.00
2019-06-26T14:05:38.305Z,33.30
2019-06-26T14:08:10.474Z,33.30
2019-06-26T14:10:42.620Z,33.20
2019-06-26T14:13:14.577Z,33.20
2019-06-26T14:15:46.972Z,33.30
2019-06-26T14:18:19.254Z,33.50
2019-06-26T14:20:51.494Z,33.80
2019-06-26T14:23:23.791Z,34.00
2019-06-26T14:25:55.974Z,33.80
2019-06-26T14:28:26.872Z,33.70
2019-06-26T14:30:58.978Z,33.60
2019-06-26T14:33:30.968Z,33.70
2019-06-26T14:36:03.129Z,33.90
2019-06-26T14:38:35.569Z,34.00
2019-06-26T14:41:07.711Z,33.90
2019-06-26T14:43:39.783Z,33.80
2019-06-26T14:46:12.151Z,34.00
2019-06-26T14:48:44.335Z,33.40
2019-06-26T14:51:16.672Z,33.40
2019-06-26T14:53:49.255Z,33.30
2019-06-26T14:56:22.372Z,34.20
2019-06-26T14:58:54.906Z,33.80
2019-06-26T15:01:26.890Z,34.20
2019-06-26T15:03:59.022Z,34.20
2019-06-26T15:06:31.161Z,34.40
2019-06-26T15:09:07.695Z,34.60
2019-06-26T15:11:39.960Z,34.70
2019-06-26T15:14:12.527Z,35.00
2019-06-26T15:16:44.716Z,35.50
2019-06-26T15:19:17.313Z,35.50
2019-06-26T15:21:58.329Z,35.60
2019-06-26T15:24:23.338Z,35.70
2019-06-26T15:26:55.721Z,35.70
2019-06-26T15:29:27.703Z,35.70
2019-06-26T15:31:59.770Z,35.60
2019-06-26T15:34:31.911Z,35.60
2019-06-26T15:37:04.023Z,35.70
2019-06-26T15:39:36.865Z,35.70
2019-06-26T15:42:09.200Z,35.60
2019-06-26T15:44:41.219Z,35.50
2019-06-26T15:47:13.376Z,35.40
2019-06-26T15:49:45.733Z,36.10
2019-06-26T15:52:18.141Z,35.40
2019-06-26T15:54:50.443Z,35.30
2019-06-26T15:57:23.858Z,35.50
2019-06-26T15:59:56.899Z,35.60
2019-06-26T16:02:29.295Z,35.40
2019-06-26T16:05:01.432Z,35.30
2019-06-26T16:07:34.092Z,35.20
2019-06-26T16:10:07.350Z,35.10
2019-06-26T16:12:39.626Z,35.00
2019-06-26T16:15:12.517Z,35.30
2019-06-26T16:18:14.706Z,35.50
2019-06-26T16:20:46.984Z,35.50
2019-06-26T16:23:19.432Z,35.20
2019-06-26T16:25:51.559Z,34.60
2019-06-26T16:28:23.862Z,34.00
2019-06-26T16:30:55.950Z,33.60
2019-06-26T16:33:27.921Z,33.50
2019-06-26T16:36:00.447Z,33.50
2019-06-26T16:38:32.574Z,33.60
2019-06-26T16:41:04.676Z,33.70
2019-06-26T16:43:37.147Z,33.80
2019-06-26T16:46:09.226Z,34.10
2019-06-26T16:48:41.962Z,34.00
2019-06-26T16:51:14.206Z,33.90
2019-06-26T16:53:47.149Z,33.80
2019-06-26T16:56:19.611Z,34.00
2019-06-26T16:58:51.947Z,34.20
2019-06-26T17:01:24.359Z,34.50
2019-06-26T17:03:56.646Z,34.70
2019-06-26T17:06:28.884Z,34.80
2019-06-26T17:09:01.935Z,34.60
2019-06-26T17:11:34.191Z,34.60
2019-06-26T17:14:08.153Z,34.60
2019-06-26T17:16:40.386Z,34.50
2019-06-26T17:19:12.827Z,34.60
2019-06-26T17:21:45.248Z,34.60
2019-06-26T17:24:17.310Z,34.70
2019-06-26T17:26:49.224Z,34.80
2019-06-26T17:29:21.341Z,34.90
2019-06-26T17:31:53.790Z,35.00
2019-06-26T17:34:27.289Z,34.80
2019-06-26T17:36:59.343Z,34.70
2019-06-26T17:39:31.680Z,34.80
2019-06-26T17:42:04.172Z,34.80
2019-06-26T17:44:36.168Z,34.80
2019-06-26T17:47:09.708Z,34.90
2019-06-26T17:49:42.838Z,34.90
2019-06-26T17:52:15.254Z,35.20
2019-06-26T17:54:47.536Z,35.30
2019-06-26T17:57:20.061Z,35.40
2019-06-26T17:59:52.816Z,35.60
2019-06-26T18:02:24.807Z,35.60
2019-06-26T18:04:56.842Z,35.70
2019-06-26T18:07:29.199Z,35.80
2019-06-26T18:10:01.424Z,36.00
2019-06-26T18:12:34.001Z,36.00
2019-06-26T18:15:06.574Z,36.20
2019-06-26T18:17:38.658Z,36.30
2019-06-26T18:20:11.476Z,36.60
2019-06-26T18:22:43.684Z,36.80
2019-06-26T18:25:16.749Z,36.90
2019-06-26T18:27:49.047Z,37.00
2019-06-26T18:30:22.846Z,37.20
2019-06-26T18:32:55.106Z,37.30
2019-06-26T18:35:27.447Z,37.50
2019-06-26T18:37:59.702Z,37.70
2019-06-26T18:40:31.800Z,37.90
2019-06-26T18:43:03.956Z,38.10
2019-06-26T18:45:37.848Z,38.40
2019-06-26T18:48:09.789Z,38.70
2019-06-26T18:50:42.146Z,38.90
2019-06-26T18:53:14.307Z,39.10
2019-06-26T18:55:47.166Z,39.40
2019-06-26T18:58:19.917Z,39.60
2019-06-26T19:00:52.604Z,39.90
2019-06-26T19:03:24.667Z,40.10
2019-06-26T19:05:56.897Z,40.50
2019-06-26T19:08:28.993Z,40.70
2019-06-26T19:11:01.135Z,40.90
2019-06-26T19:13:33.128Z,41.20
2019-06-26T19:16:05.475Z,41.30
2019-06-26T19:18:38.106Z,41.60
2019-06-26T19:21:10.518Z,41.70
2019-06-26T19:23:42.457Z,42.10
2019-06-26T19:26:14.837Z,42.30
2019-06-26T19:28:49.432Z,42.50
2019-06-26T19:31:24.739Z,42.60
2019-06-26T19:33:56.998Z,42.90
2019-06-26T19:36:29.172Z,43.10
2019-06-26T19:39:01.500Z,43.20
2019-06-26T19:41:33.673Z,43.40
2019-06-26T19:44:08.796Z,43.60
2019-06-26T19:46:42.062Z,43.70
2019-06-26T19:49:13.951Z,43.80
2019-06-26T19:51:46.240Z,44.00
2019-06-26T19:54:27.217Z,44.00
2019-06-26T19:56:52.289Z,44.10
2019-06-26T19:59:24.279Z,44.20
2019-06-26T20:01:56.473Z,44.10
2019-06-26T20:04:28.695Z,44.20
2019-06-26T20:07:00.928Z,44.20
2019-06-26T20:09:33.245Z,44.20
2019-06-26T20:12:05.368Z,44.20
2019-06-26T20:14:37.505Z,44.30
2019-06-26T20:17:10.446Z,44.40
2019-06-26T20:19:42.728Z,44.40
2019-06-26T20:22:14.783Z,44.60
2019-06-26T20:24:47.001Z,44.60
2019-06-26T20:27:19.031Z,44.60
2019-06-26T20:29:51.127Z,44.60
2019-06-26T20:32:23.104Z,44.70
2019-06-26T20:34:55.063Z,44.50
2019-06-26T20:37:26.918Z,44.80
2019-06-26T20:39:59.129Z,44.80
2019-06-26T20:42:31.157Z,44.90
2019-06-26T20:45:03.306Z,44.90
2019-06-26T20:47:35.222Z,45.00
2019-06-26T20:50:08.222Z,45.10
2019-06-26T20:52:40.162Z,45.20
2019-06-26T20:55:12.598Z,45.40
2019-06-26T20:57:44.806Z,45.30
2019-06-26T21:00:16.810Z,45.40
2019-06-26T21:02:49.359Z,45.40
2019-06-26T21:05:21.370Z,45.40
2019-06-26T21:07:53.025Z,45.40
2019-06-26T21:10:25.310Z,45.40
2019-06-26T21:12:57.304Z,45.40
2019-06-26T21:15:28.929Z,45.30
2019-06-26T21:18:00.832Z,45.30
2019-06-26T21:20:32.936Z,45.50
2019-06-26T21:23:17.465Z,45.50
2019-06-26T21:25:38.407Z,45.60
2019-06-26T21:28:10.601Z,45.90
2019-06-26T21:30:42.643Z,46.00
2019-06-26T21:33:14.502Z,46.10
2019-06-26T21:35:46.721Z,46.20
2019-06-26T21:38:19.062Z,46.30
2019-06-26T21:40:52.054Z,46.50
2019-06-26T21:43:24.090Z,46.50
2019-06-26T21:45:55.971Z,46.60
2019-06-26T21:48:27.952Z,46.80
2019-06-26T21:51:00.137Z,46.70
2019-06-26T21:53:31.774Z,46.90
2019-06-26T21:56:03.983Z,47.00
2019-06-26T21:58:35.953Z,47.20
2019-06-26T22:01:08.041Z,47.50
2019-06-26T22:03:40.111Z,47.50
2019-06-26T22:06:11.991Z,47.80
2019-06-26T22:08:44.073Z,47.90
2019-06-26T22:11:16.314Z,48.10
2019-06-26T22:13:48.478Z,48.40
2019-06-26T22:16:20.213Z,48.40
2019-06-26T22:18:52.196Z,48.70
2019-06-26T22:21:24.299Z,48.80
2019-06-26T22:23:56.143Z,49.10
2019-06-26T22:26:28.051Z,49.10
2019-06-26T22:29:00.439Z,49.10
2019-06-26T22:31:32.544Z,50.00
2019-06-26T22:34:04.611Z,49.50
2019-06-26T22:36:36.663Z,49.60
2019-06-26T22:39:08.478Z,49.80
2019-06-26T22:41:40.705Z,50.00
2019-06-26T22:44:12.783Z,50.40
2019-06-26T22:46:44.529Z,50.70
2019-06-26T22:49:16.589Z,50.80
2019-06-26T22:51:48.207Z,50.80
2019-06-26T22:54:20.423Z,51.00
2019-06-26T22:56:51.966Z,51.10
2019-06-26T22:59:23.903Z,51.20
2019-06-26T23:01:55.678Z,51.40
2019-06-26T23:04:27.540Z,51.80
2019-06-26T23:06:59.188Z,52.10
2019-06-26T23:09:31.031Z,52.50
2019-06-26T23:12:03.034Z,52.80
2019-06-26T23:14:34.882Z,53.10
2019-06-26T23:17:06.943Z,53.40
2019-06-26T23:19:38.746Z,53.50
2019-06-26T23:22:10.794Z,53.90
2019-06-26T23:24:42.815Z,54.30
2019-06-26T23:27:14.626Z,54.60
2019-06-26T23:29:46.322Z,54.90
2019-06-26T23:32:18.071Z,55.20
2019-06-26T23:34:51.087Z,55.50
2019-06-26T23:37:22.914Z,56.00
2019-06-26T23:39:54.482Z,56.30
2019-06-26T23:42:26.315Z,56.40
2019-06-26T23:44:58.005Z,56.80
2019-06-26T23:47:29.808Z,56.90
2019-06-26T23:50:02.031Z,57.00
2019-06-26T23:52:33.927Z,57.40
2019-06-26T23:55:05.579Z,57.60
2019-06-26T23:57:44.400Z,58.10
